createdAt,value
2019-03-26T00:00:55.900Z,22.55
2019-03-26T00:01:55.907Z,22.57
2019-03-26T00:02:55.864Z,22.53
2019-03-26T00:04:05.180Z,22.51
2019-03-26T00:04:56.845Z,22.53
2019-03-26T00:05:55.826Z,22.54
2019-03-26T00:06:55.827Z,22.47
2019-03-26T00:07:55.975Z,22.51
2019-03-26T00:08:55.806Z,22.47
2019-03-26T00:09:55.794Z,22.57
2019-03-26T00:10:55.823Z,22.55
2019-03-26T00:11:55.796Z,22.44
2019-03-26T00:12:55.757Z,22.51
2019-03-26T00:13:57.727Z,22.55
2019-03-26T00:14:55.735Z,22.51
2019-03-26T00:15:55.738Z,22.51
2019-03-26T00:16:55.702Z,22.48
2019-03-26T00:17:55.698Z,22.55
2019-03-26T00:18:55.687Z,22.50
2019-03-26T00:19:55.701Z,22.54
2019-03-26T00:20:55.658Z,22.51
2019-03-26T00:21:55.650Z,22.48
2019-03-26T00:22:55.651Z,22.51
2019-03-26T00:23:55.645Z,22.55
2019-03-26T00:24:55.642Z,22.45
2019-03-26T00:25:55.606Z,22.51
2019-03-26T00:26:55.594Z,22.50
2019-03-26T00:27:55.605Z,22.51
2019-03-26T00:28:55.570Z,22.50
2019-03-26T00:29:55.587Z,22.45
2019-03-26T00:30:55.568Z,22.50
2019-03-26T00:31:55.545Z,22.48
2019-03-26T00:32:55.529Z,22.48
2019-03-26T00:33:55.524Z,22.54
2019-03-26T00:34:55.503Z,22.43
2019-03-26T00:35:55.508Z,22.51
2019-03-26T00:36:55.480Z,22.55
2019-03-26T00:37:55.472Z,22.48
2019-03-26T00:38:55.458Z,22.50
2019-03-26T00:39:55.444Z,22.48
2019-03-26T00:40:55.437Z,22.39
2019-03-26T00:41:55.423Z,22.39
2019-03-26T00:42:55.448Z,22.43
2019-03-26T00:43:55.407Z,22.47
2019-03-26T00:44:55.403Z,22.51
2019-03-26T00:45:55.381Z,22.50
2019-03-26T00:46:55.372Z,22.50
2019-03-26T00:47:55.361Z,22.50
2019-03-26T00:48:55.347Z,22.51
2019-03-26T00:49:55.343Z,22.47
2019-03-26T00:50:55.351Z,22.47
2019-03-26T00:51:55.358Z,22.43
2019-03-26T00:52:55.323Z,22.53
2019-03-26T00:53:55.293Z,22.47
2019-03-26T00:54:55.281Z,22.50
2019-03-26T00:55:55.275Z,22.44
2019-03-26T00:56:55.258Z,22.44
2019-03-26T00:57:55.679Z,22.44
2019-03-26T00:58:55.239Z,22.51
2019-03-26T00:59:55.244Z,22.41
2019-03-26T01:00:55.224Z,22.47
2019-03-26T01:01:55.219Z,22.43
2019-03-26T01:02:55.209Z,22.44
2019-03-26T01:03:55.317Z,22.41
2019-03-26T01:04:55.179Z,22.41
2019-03-26T01:05:55.168Z,22.41
2019-03-26T01:06:55.155Z,22.36
2019-03-26T01:07:55.157Z,22.43
2019-03-26T01:08:55.121Z,22.41
2019-03-26T01:09:55.128Z,22.44
2019-03-26T01:10:55.107Z,22.45
2019-03-26T01:11:55.091Z,22.43
2019-03-26T01:12:55.094Z,22.41
2019-03-26T01:13:55.082Z,22.45
2019-03-26T01:14:55.060Z,22.38
2019-03-26T01:15:55.069Z,22.43
2019-03-26T01:16:55.044Z,22.44
2019-03-26T01:17:55.031Z,22.44
2019-03-26T01:18:55.019Z,22.41
2019-03-26T01:19:55.005Z,22.43
2019-03-26T01:20:54.998Z,22.44
2019-03-26T01:21:54.992Z,22.41
2019-03-26T01:22:54.983Z,22.41
2019-03-26T01:23:54.960Z,22.41
2019-03-26T01:24:55.011Z,22.44
2019-03-26T01:25:54.938Z,22.43
2019-03-26T01:26:54.937Z,22.38
2019-03-26T01:27:54.945Z,22.43
2019-03-26T01:28:54.900Z,22.43
2019-03-26T01:29:54.915Z,22.39
2019-03-26T01:30:54.907Z,22.38
2019-03-26T01:31:54.878Z,22.41
2019-03-26T01:32:54.867Z,22.38
2019-03-26T01:33:54.868Z,22.44
2019-03-26T01:34:54.837Z,22.35
2019-03-26T01:35:54.895Z,22.39
2019-03-26T01:36:54.830Z,22.39
2019-03-26T01:37:54.823Z,22.36
2019-03-26T01:38:54.819Z,22.38
2019-03-26T01:39:54.884Z,22.36
2019-03-26T01:40:54.771Z,22.39
2019-03-26T01:41:54.760Z,22.41
2019-03-26T01:42:54.771Z,22.39
2019-03-26T01:43:54.782Z,22.39
2019-03-26T01:44:54.740Z,22.41
2019-03-26T01:45:54.723Z,22.44
2019-03-26T01:46:54.702Z,22.39
2019-03-26T01:47:54.823Z,22.43
2019-03-26T01:48:54.692Z,22.41
2019-03-26T01:49:54.695Z,22.41
2019-03-26T01:50:54.680Z,22.41
2019-03-26T01:51:54.657Z,22.33
2019-03-26T01:52:54.649Z,22.43
2019-03-26T01:53:54.689Z,22.41
2019-03-26T01:54:54.628Z,22.41
2019-03-26T01:55:54.606Z,22.32
2019-03-26T01:56:54.593Z,22.38
2019-03-26T01:57:54.605Z,22.38
2019-03-26T01:58:54.573Z,22.39
2019-03-26T01:59:54.562Z,22.36
2019-03-26T02:00:54.568Z,22.38
2019-03-26T02:01:54.537Z,22.41
2019-03-26T02:02:54.539Z,22.38
2019-03-26T02:03:54.518Z,22.39
2019-03-26T02:05:00.155Z,22.38
2019-03-26T02:05:55.516Z,22.38
2019-03-26T02:06:54.505Z,22.38
2019-03-26T02:07:54.515Z,22.38
2019-03-26T02:08:54.475Z,22.33
2019-03-26T02:09:54.482Z,22.39
2019-03-26T02:10:54.450Z,22.39
2019-03-26T02:11:54.436Z,22.39
2019-03-26T02:12:54.424Z,22.38
2019-03-26T02:13:54.411Z,22.43
2019-03-26T02:14:54.414Z,22.36
2019-03-26T02:15:54.392Z,22.38
2019-03-26T02:16:54.383Z,22.35
2019-03-26T02:17:54.380Z,22.38
2019-03-26T02:18:54.361Z,22.36
2019-03-26T02:19:54.354Z,22.33
2019-03-26T02:20:54.330Z,22.39
2019-03-26T02:21:54.315Z,22.32
2019-03-26T02:22:54.326Z,22.38
2019-03-26T02:23:54.316Z,22.26
2019-03-26T02:24:54.296Z,22.38
2019-03-26T02:25:54.292Z,22.35
2019-03-26T02:26:54.272Z,22.26
2019-03-26T02:27:54.268Z,22.36
2019-03-26T02:28:54.263Z,22.36
2019-03-26T02:29:54.245Z,22.36
2019-03-26T02:30:54.238Z,22.35
2019-03-26T02:31:54.217Z,22.30
2019-03-26T02:32:54.228Z,22.36
2019-03-26T02:33:54.192Z,22.29
2019-03-26T02:34:54.191Z,22.35
2019-03-26T02:35:54.201Z,22.33
2019-03-26T02:36:54.168Z,22.33
2019-03-26T02:37:54.150Z,22.36
2019-03-26T02:38:54.146Z,22.30
2019-03-26T02:39:54.132Z,22.29
2019-03-26T02:40:54.140Z,22.29
2019-03-26T02:41:54.142Z,22.38
2019-03-26T02:42:54.102Z,22.30
2019-03-26T02:43:54.136Z,22.26
2019-03-26T02:44:54.102Z,22.30
2019-03-26T02:45:54.058Z,22.33
2019-03-26T02:46:54.104Z,22.30
2019-03-26T02:47:54.040Z,22.35
2019-03-26T02:48:54.019Z,22.29
2019-03-26T02:49:54.115Z,22.33
2019-03-26T02:50:54.017Z,22.26
2019-03-26T02:51:54.001Z,22.33
2019-03-26T02:52:53.990Z,22.28
2019-03-26T02:53:53.973Z,22.30
2019-03-26T02:54:53.978Z,22.33
2019-03-26T02:55:53.947Z,22.29
2019-03-26T02:56:53.949Z,22.35
2019-03-26T02:57:53.986Z,22.29
2019-03-26T02:58:53.932Z,22.29
2019-03-26T02:59:53.900Z,22.29
2019-03-26T03:00:53.898Z,22.30
2019-03-26T03:01:53.914Z,22.28
2019-03-26T03:02:53.887Z,22.35
2019-03-26T03:03:53.865Z,22.30
2019-03-26T03:04:53.866Z,22.29
2019-03-26T03:05:53.838Z,22.33
2019-03-26T03:06:53.830Z,22.26
2019-03-26T03:07:53.840Z,22.35
2019-03-26T03:08:53.811Z,22.30
2019-03-26T03:09:53.802Z,22.32
2019-03-26T03:10:53.783Z,22.32
2019-03-26T03:11:53.772Z,22.28
2019-03-26T03:12:53.930Z,22.32
2019-03-26T03:13:53.768Z,22.28
2019-03-26T03:14:53.742Z,22.30
2019-03-26T03:15:53.732Z,22.30
2019-03-26T03:16:53.731Z,22.30
2019-03-26T03:17:53.703Z,22.30
2019-03-26T03:18:53.706Z,22.28
2019-03-26T03:19:53.682Z,22.33
2019-03-26T03:20:53.682Z,22.29
2019-03-26T03:21:53.673Z,22.32
2019-03-26T03:22:53.644Z,22.26
2019-03-26T03:23:53.645Z,22.30
2019-03-26T03:24:53.631Z,22.28
2019-03-26T03:25:53.628Z,22.29
2019-03-26T03:26:53.622Z,22.28
2019-03-26T03:27:53.682Z,22.30
2019-03-26T03:28:53.582Z,22.29
2019-03-26T03:29:53.595Z,22.29
2019-03-26T03:30:53.566Z,22.33
2019-03-26T03:31:53.551Z,22.30
2019-03-26T03:32:53.569Z,22.29
2019-03-26T03:33:53.565Z,22.32
2019-03-26T03:34:53.693Z,22.23
2019-03-26T03:35:53.509Z,22.28
2019-03-26T03:36:53.498Z,22.29
2019-03-26T03:37:53.513Z,22.29
2019-03-26T03:38:53.510Z,22.22
2019-03-26T03:39:53.473Z,22.33
2019-03-26T03:40:53.456Z,22.28
2019-03-26T03:41:53.445Z,22.22
2019-03-26T03:42:53.435Z,22.28
2019-03-26T03:43:53.432Z,22.30
2019-03-26T03:44:53.420Z,22.35
2019-03-26T03:45:53.402Z,22.30
2019-03-26T03:46:53.388Z,22.22
2019-03-26T03:47:53.380Z,22.33
2019-03-26T03:48:53.369Z,22.18
2019-03-26T03:49:53.385Z,22.26
2019-03-26T03:50:53.347Z,22.30
2019-03-26T03:51:53.323Z,22.26
2019-03-26T03:52:53.318Z,22.36
2019-03-26T03:53:53.326Z,22.32
2019-03-26T03:54:53.302Z,22.30
2019-03-26T03:55:53.297Z,22.33
2019-03-26T03:56:53.265Z,22.32
2019-03-26T03:57:53.362Z,22.33
2019-03-26T03:58:53.249Z,22.35
2019-03-26T03:59:53.244Z,22.26
2019-03-26T04:00:53.244Z,22.33
2019-03-26T04:01:53.227Z,22.29
2019-03-26T04:02:53.206Z,22.29
2019-03-26T04:03:53.197Z,22.25
2019-03-26T04:04:53.201Z,22.20
2019-03-26T04:06:08.170Z,22.29
2019-03-26T04:06:54.149Z,22.32
2019-03-26T04:07:53.165Z,22.32
2019-03-26T04:08:53.144Z,22.32
2019-03-26T04:09:53.122Z,22.26
2019-03-26T04:10:53.124Z,22.30
2019-03-26T04:11:53.116Z,22.32
2019-03-26T04:12:53.124Z,22.25
2019-03-26T04:13:53.080Z,22.29
2019-03-26T04:14:53.186Z,22.36
2019-03-26T04:15:53.058Z,22.32
2019-03-26T04:16:53.046Z,22.26
2019-03-26T04:17:53.337Z,22.25
2019-03-26T04:18:53.052Z,22.32
2019-03-26T04:19:53.026Z,22.26
2019-03-26T04:20:52.993Z,22.30
2019-03-26T04:21:53.001Z,22.30
2019-03-26T04:22:52.983Z,22.32
2019-03-26T04:23:52.967Z,22.28
2019-03-26T04:24:52.954Z,22.32
2019-03-26T04:25:52.946Z,22.29
2019-03-26T04:26:52.945Z,22.29
2019-03-26T04:27:52.925Z,22.29
2019-03-26T04:28:52.930Z,22.29
2019-03-26T04:29:52.922Z,22.35
2019-03-26T04:30:52.915Z,22.32
2019-03-26T04:31:52.876Z,22.32
2019-03-26T04:32:52.871Z,22.35
2019-03-26T04:33:52.870Z,22.30
2019-03-26T04:34:52.858Z,22.32
2019-03-26T04:35:52.858Z,22.22
2019-03-26T04:36:52.824Z,22.33
2019-03-26T04:37:52.809Z,22.29
2019-03-26T04:38:52.812Z,22.26
2019-03-26T04:39:52.808Z,22.32
2019-03-26T04:40:52.795Z,22.29
2019-03-26T04:41:52.768Z,22.30
2019-03-26T04:42:52.752Z,22.28
2019-03-26T04:43:52.765Z,22.29
2019-03-26T04:44:52.740Z,22.29
2019-03-26T04:45:52.735Z,22.30
2019-03-26T04:46:52.705Z,22.29
2019-03-26T04:47:52.700Z,22.32
2019-03-26T04:48:52.695Z,22.35
2019-03-26T04:49:52.676Z,22.29
2019-03-26T04:50:52.670Z,22.28
2019-03-26T04:51:52.697Z,22.30
2019-03-26T04:52:52.649Z,22.32
2019-03-26T04:53:52.641Z,22.26
2019-03-26T04:54:52.618Z,22.26
2019-03-26T04:55:52.623Z,22.23
2019-03-26T04:56:52.600Z,22.30
2019-03-26T04:57:52.617Z,22.35
2019-03-26T04:58:52.582Z,22.28
2019-03-26T04:59:52.566Z,22.35
2019-03-26T05:00:52.551Z,22.29
2019-03-26T05:01:52.546Z,22.33
2019-03-26T05:02:52.528Z,22.26
2019-03-26T05:03:52.534Z,22.35
2019-03-26T05:04:52.509Z,22.28
2019-03-26T05:05:52.498Z,22.30
2019-03-26T05:06:52.482Z,22.20
2019-03-26T05:07:52.753Z,22.35
2019-03-26T05:08:52.487Z,22.25
2019-03-26T05:09:52.472Z,22.26
2019-03-26T05:10:52.448Z,22.29
2019-03-26T05:11:52.429Z,22.28
2019-03-26T05:12:52.421Z,22.29
2019-03-26T05:13:52.492Z,22.30
2019-03-26T05:14:52.410Z,22.26
2019-03-26T05:15:52.380Z,22.26
2019-03-26T05:16:52.379Z,22.29
2019-03-26T05:17:52.376Z,22.30
2019-03-26T05:18:52.401Z,22.26
2019-03-26T05:19:52.352Z,22.29
2019-03-26T05:20:52.338Z,22.26
2019-03-26T05:21:52.345Z,22.23
2019-03-26T05:22:52.308Z,22.26
2019-03-26T05:23:52.315Z,22.28
2019-03-26T05:24:52.281Z,22.30
2019-03-26T05:25:52.296Z,22.26
2019-03-26T05:26:52.285Z,22.18
2019-03-26T05:27:52.247Z,22.17
2019-03-26T05:28:52.257Z,22.06
2019-03-26T05:29:52.224Z,22.07
2019-03-26T05:30:52.233Z,22.02
2019-03-26T05:31:52.221Z,21.95
2019-03-26T05:32:52.189Z,21.70
2019-03-26T05:33:52.194Z,21.66
2019-03-26T05:34:52.187Z,21.54
2019-03-26T05:35:52.178Z,21.43
2019-03-26T05:36:52.160Z,21.25
2019-03-26T05:37:52.137Z,21.22
2019-03-26T05:38:52.143Z,21.20
2019-03-26T05:39:52.127Z,21.22
2019-03-26T05:40:52.106Z,21.09
2019-03-26T05:41:52.100Z,20.96
2019-03-26T05:42:52.084Z,21.05
2019-03-26T05:43:52.074Z,20.97
2019-03-26T05:44:52.066Z,20.93
2019-03-26T05:45:52.050Z,20.82
2019-03-26T05:46:52.042Z,20.87
2019-03-26T05:47:52.033Z,20.90
2019-03-26T05:48:52.030Z,20.82
2019-03-26T05:49:52.005Z,20.84
2019-03-26T05:50:51.993Z,20.81
2019-03-26T05:51:51.984Z,20.82
2019-03-26T05:52:51.974Z,20.84
2019-03-26T05:53:52.024Z,20.82
2019-03-26T05:54:51.961Z,20.84
2019-03-26T05:55:51.942Z,20.70
2019-03-26T05:56:51.930Z,20.72
2019-03-26T05:57:52.235Z,20.65
2019-03-26T05:58:51.932Z,20.60
2019-03-26T05:59:51.904Z,20.52
2019-03-26T06:00:51.887Z,20.60
2019-03-26T06:01:51.868Z,20.60
2019-03-26T06:02:51.861Z,20.65
2019-03-26T06:03:51.871Z,20.63
2019-03-26T06:04:51.843Z,20.74
2019-03-26T06:05:51.864Z,20.70
2019-03-26T06:07:04.250Z,20.72
2019-03-26T06:07:52.806Z,20.72
2019-03-26T06:08:51.805Z,20.78
2019-03-26T06:09:51.785Z,20.88
2019-03-26T06:10:51.803Z,20.85
2019-03-26T06:11:51.761Z,20.85
2019-03-26T06:12:51.749Z,20.87
2019-03-26T06:13:51.754Z,20.96
2019-03-26T06:14:51.738Z,20.99
2019-03-26T06:15:51.739Z,21.02
2019-03-26T06:16:51.722Z,20.95
2019-03-26T06:17:51.719Z,20.95
2019-03-26T06:18:51.684Z,21.03
2019-03-26T06:19:51.682Z,21.12
2019-03-26T06:20:51.665Z,21.22
2019-03-26T06:21:51.658Z,21.11
2019-03-26T06:22:51.649Z,21.14
2019-03-26T06:23:53.677Z,21.21
2019-03-26T06:24:51.640Z,21.32
2019-03-26T06:25:51.619Z,21.29
2019-03-26T06:26:51.596Z,21.33
2019-03-26T06:27:51.599Z,21.40
2019-03-26T06:28:51.590Z,21.43
2019-03-26T06:29:51.569Z,21.48
2019-03-26T06:30:51.553Z,21.54
2019-03-26T06:31:51.539Z,21.57
2019-03-26T06:32:51.530Z,21.51
2019-03-26T06:33:51.548Z,21.57
2019-03-26T06:34:51.514Z,21.67
2019-03-26T06:35:51.498Z,21.69
2019-03-26T06:36:51.485Z,21.66
2019-03-26T06:37:51.475Z,21.73
2019-03-26T06:38:51.464Z,21.72
2019-03-26T06:39:51.474Z,21.80
2019-03-26T06:40:51.454Z,21.76
2019-03-26T06:41:51.453Z,21.76
2019-03-26T06:42:51.429Z,21.88
2019-03-26T06:43:51.416Z,21.89
2019-03-26T06:44:51.402Z,21.89
2019-03-26T06:45:51.403Z,21.85
2019-03-26T06:46:51.383Z,21.85
2019-03-26T06:47:51.376Z,21.96
2019-03-26T06:48:51.350Z,21.96
2019-03-26T06:49:51.360Z,21.99
2019-03-26T06:50:51.332Z,22.06
2019-03-26T06:51:51.323Z,22.06
2019-03-26T06:52:51.314Z,21.95
2019-03-26T06:53:51.304Z,22.07
2019-03-26T06:54:51.854Z,22.07
2019-03-26T06:55:51.280Z,22.08
2019-03-26T06:56:51.305Z,22.04
2019-03-26T06:57:51.264Z,22.07
2019-03-26T06:58:51.246Z,22.13
2019-03-26T06:59:51.239Z,22.11
2019-03-26T07:00:51.237Z,22.10
2019-03-26T07:01:51.224Z,22.13
2019-03-26T07:02:51.219Z,22.07
2019-03-26T07:03:51.185Z,22.11
2019-03-26T07:04:51.200Z,22.00
2019-03-26T07:05:51.184Z,22.11
2019-03-26T07:06:51.152Z,22.10
2019-03-26T07:07:51.155Z,22.00
2019-03-26T07:08:51.148Z,22.08
2019-03-26T07:09:51.146Z,22.00
2019-03-26T07:10:51.150Z,22.00
2019-03-26T07:11:51.099Z,21.99
2019-03-26T07:12:51.103Z,21.99
2019-03-26T07:13:51.083Z,21.96
2019-03-26T07:14:51.062Z,21.99
2019-03-26T07:15:51.063Z,22.04
2019-03-26T07:16:51.050Z,21.96
2019-03-26T07:17:52.459Z,22.00
2019-03-26T07:18:51.021Z,22.02
2019-03-26T07:19:51.014Z,22.02
2019-03-26T07:20:51.010Z,22.02
2019-03-26T07:21:50.988Z,22.07
2019-03-26T07:22:50.979Z,22.08
2019-03-26T07:23:50.970Z,22.06
2019-03-26T07:24:50.963Z,22.08
2019-03-26T07:25:50.972Z,22.08
2019-03-26T07:26:50.946Z,22.00
2019-03-26T07:27:50.921Z,21.99
2019-03-26T07:28:50.934Z,22.00
2019-03-26T07:29:50.906Z,22.07
2019-03-26T07:30:50.890Z,22.04
2019-03-26T07:31:50.899Z,22.14
2019-03-26T07:32:50.872Z,22.11
2019-03-26T07:33:50.975Z,22.11
2019-03-26T07:34:50.844Z,22.13
2019-03-26T07:35:50.837Z,22.08
2019-03-26T07:36:50.846Z,22.08
2019-03-26T07:37:50.886Z,22.10
2019-03-26T07:38:50.806Z,22.11
2019-03-26T07:39:50.829Z,22.13
2019-03-26T07:40:50.777Z,22.13
2019-03-26T07:41:50.773Z,22.11
2019-03-26T07:42:50.755Z,22.11
2019-03-26T07:43:50.743Z,22.17
2019-03-26T07:44:50.745Z,22.22
2019-03-26T07:45:50.740Z,22.22
2019-03-26T07:46:50.721Z,22.11
2019-03-26T07:47:50.699Z,22.23
2019-03-26T07:48:50.691Z,22.17
2019-03-26T07:49:50.680Z,22.17
2019-03-26T07:50:50.676Z,22.13
2019-03-26T07:51:50.666Z,22.20
2019-03-26T07:52:50.646Z,22.25
2019-03-26T07:53:50.632Z,22.29
2019-03-26T07:54:50.624Z,22.22
2019-03-26T07:55:50.612Z,22.29
2019-03-26T07:56:50.616Z,22.26
2019-03-26T07:57:50.596Z,22.33
2019-03-26T07:58:50.615Z,22.32
2019-03-26T07:59:50.574Z,22.29
2019-03-26T08:00:50.571Z,22.28
2019-03-26T08:01:50.563Z,22.23
2019-03-26T08:02:50.549Z,22.32
2019-03-26T08:03:50.543Z,22.29
2019-03-26T08:04:50.508Z,22.36
2019-03-26T08:05:50.521Z,22.38
2019-03-26T08:06:50.496Z,22.39
2019-03-26T08:07:58.311Z,22.39
2019-03-26T08:08:51.463Z,22.47
2019-03-26T08:09:50.453Z,22.39
2019-03-26T08:10:50.465Z,22.50
2019-03-26T08:11:50.454Z,22.39
2019-03-26T08:12:50.525Z,22.48
2019-03-26T08:13:50.445Z,22.53
2019-03-26T08:14:50.408Z,22.50
2019-03-26T08:15:50.421Z,22.51
2019-03-26T08:16:50.420Z,22.54
2019-03-26T08:17:50.385Z,22.55
2019-03-26T08:18:50.366Z,22.50
2019-03-26T08:19:50.351Z,22.51
2019-03-26T08:20:50.342Z,22.60
2019-03-26T08:21:50.337Z,22.60
2019-03-26T08:22:50.316Z,22.63
2019-03-26T08:23:50.298Z,22.60
2019-03-26T08:24:50.309Z,22.62
2019-03-26T08:25:50.284Z,22.70
2019-03-26T08:26:52.027Z,22.76
2019-03-26T08:27:50.282Z,22.70
2019-03-26T08:28:50.243Z,22.68
2019-03-26T08:29:50.245Z,22.69
2019-03-26T08:30:50.459Z,22.69
2019-03-26T08:31:50.226Z,22.78
2019-03-26T08:32:50.201Z,22.73
2019-03-26T08:33:50.209Z,22.73
2019-03-26T08:34:50.210Z,22.72
2019-03-26T08:35:50.162Z,22.80
2019-03-26T08:36:50.149Z,22.78
2019-03-26T08:37:50.157Z,22.80
2019-03-26T08:38:50.156Z,22.76
2019-03-26T08:39:50.134Z,22.78
2019-03-26T08:40:50.106Z,22.80
2019-03-26T08:41:50.098Z,22.88
2019-03-26T08:42:50.084Z,22.78
2019-03-26T08:43:50.077Z,22.87
2019-03-26T08:44:50.067Z,22.81
2019-03-26T08:45:50.057Z,22.81
2019-03-26T08:46:50.066Z,22.91
2019-03-26T08:47:50.046Z,22.91
2019-03-26T08:48:50.029Z,22.83
2019-03-26T08:49:50.033Z,22.93
2019-03-26T08:50:50.001Z,22.85
2019-03-26T08:51:49.991Z,22.78
2019-03-26T08:52:49.999Z,22.93
2019-03-26T08:53:49.966Z,22.90
2019-03-26T08:54:49.949Z,22.91
2019-03-26T08:55:49.950Z,22.85
2019-03-26T08:56:49.940Z,22.96
2019-03-26T08:57:49.925Z,22.96
2019-03-26T08:58:49.917Z,22.93
2019-03-26T08:59:49.910Z,22.85
2019-03-26T09:00:49.960Z,22.98
2019-03-26T09:01:49.881Z,22.98
2019-03-26T09:02:49.902Z,22.96
2019-03-26T09:03:49.873Z,22.99
2019-03-26T09:04:49.840Z,22.93
2019-03-26T09:05:49.834Z,22.94
2019-03-26T09:06:49.836Z,23.02
2019-03-26T09:07:49.825Z,23.02
2019-03-26T09:08:49.859Z,23.06
2019-03-26T09:09:49.783Z,23.03
2019-03-26T09:10:51.981Z,23.00
2019-03-26T09:11:49.760Z,22.99
2019-03-26T09:12:49.752Z,23.06
2019-03-26T09:13:49.776Z,23.05
2019-03-26T09:14:49.743Z,23.09
2019-03-26T09:15:49.734Z,23.05
2019-03-26T09:16:49.709Z,23.08
2019-03-26T09:17:49.702Z,23.10
2019-03-26T09:18:49.695Z,23.12
2019-03-26T09:19:49.688Z,23.12
2019-03-26T09:20:49.661Z,23.09
2019-03-26T09:21:49.664Z,23.10
2019-03-26T09:22:49.640Z,23.13
2019-03-26T09:23:49.634Z,23.12
2019-03-26T09:24:49.615Z,23.15
2019-03-26T09:25:49.631Z,23.21
2019-03-26T09:26:49.598Z,23.17
2019-03-26T09:27:52.355Z,23.20
2019-03-26T09:28:49.579Z,23.24
2019-03-26T09:29:49.560Z,23.21
2019-03-26T09:30:49.548Z,23.21
2019-03-26T09:31:49.555Z,23.24
2019-03-26T09:32:49.537Z,23.15
2019-03-26T09:33:49.534Z,23.24
2019-03-26T09:34:49.506Z,23.17
2019-03-26T09:35:49.505Z,23.27
2019-03-26T09:36:49.489Z,23.23
2019-03-26T09:37:49.540Z,23.20
2019-03-26T09:38:49.474Z,23.23
2019-03-26T09:39:49.458Z,23.18
2019-03-26T09:40:49.437Z,23.17
2019-03-26T09:41:49.460Z,23.23
2019-03-26T09:42:49.417Z,23.23
2019-03-26T09:43:49.426Z,23.15
2019-03-26T09:44:49.407Z,23.20
2019-03-26T09:45:49.424Z,23.18
2019-03-26T09:46:49.390Z,23.27
2019-03-26T09:47:49.359Z,23.23
2019-03-26T09:48:49.356Z,23.23
2019-03-26T09:49:49.336Z,23.31
2019-03-26T09:50:49.323Z,23.21
2019-03-26T09:51:49.312Z,23.24
2019-03-26T09:52:49.308Z,23.20
2019-03-26T09:53:49.297Z,23.20
2019-03-26T09:54:49.279Z,23.32
2019-03-26T09:55:49.270Z,23.34
2019-03-26T09:56:49.257Z,23.28
2019-03-26T09:57:49.392Z,23.31
2019-03-26T09:58:49.295Z,23.39
2019-03-26T09:59:49.226Z,23.34
2019-03-26T10:00:49.508Z,23.34
2019-03-26T10:01:49.201Z,23.36
2019-03-26T10:02:49.190Z,23.31
2019-03-26T10:03:49.187Z,23.25
2019-03-26T10:04:49.182Z,23.34
2019-03-26T10:05:49.174Z,23.25
2019-03-26T10:06:49.148Z,23.34
2019-03-26T10:07:49.134Z,23.31
2019-03-26T10:08:52.643Z,23.39
2019-03-26T10:09:49.110Z,23.28
2019-03-26T10:10:49.111Z,23.24
2019-03-26T10:11:49.110Z,23.21
2019-03-26T10:12:49.079Z,23.36
2019-03-26T10:13:49.088Z,23.21
2019-03-26T10:14:49.055Z,23.37
2019-03-26T10:15:49.047Z,23.36
2019-03-26T10:16:49.047Z,23.36
2019-03-26T10:17:49.037Z,23.31
2019-03-26T10:18:49.012Z,23.32
2019-03-26T10:19:49.013Z,23.36
2019-03-26T10:20:49.009Z,23.31
2019-03-26T10:21:48.982Z,23.36
2019-03-26T10:22:48.966Z,23.37
2019-03-26T10:23:48.974Z,23.36
2019-03-26T10:24:48.951Z,23.32
2019-03-26T10:25:48.935Z,23.27
2019-03-26T10:26:48.922Z,23.37
2019-03-26T10:27:48.967Z,23.27
2019-03-26T10:28:48.906Z,23.37
2019-03-26T10:29:48.933Z,23.37
2019-03-26T10:30:48.917Z,23.39
2019-03-26T10:31:48.869Z,23.36
2019-03-26T10:32:48.889Z,23.31
2019-03-26T10:33:48.846Z,23.41
2019-03-26T10:34:48.839Z,23.31
2019-03-26T10:35:48.822Z,23.40
2019-03-26T10:36:48.832Z,23.44
2019-03-26T10:37:48.808Z,23.40
2019-03-26T10:38:48.797Z,23.47
2019-03-26T10:39:48.786Z,23.36
2019-03-26T10:40:48.768Z,23.47
2019-03-26T10:41:48.760Z,23.37
2019-03-26T10:42:48.755Z,23.43
2019-03-26T10:43:48.771Z,23.43
2019-03-26T10:44:48.777Z,23.47
2019-03-26T10:45:48.749Z,23.46
2019-03-26T10:46:48.713Z,23.50
2019-03-26T10:47:48.688Z,23.44
2019-03-26T10:48:48.683Z,23.43
2019-03-26T10:49:48.694Z,23.47
2019-03-26T10:50:48.663Z,23.46
2019-03-26T10:51:48.646Z,23.43
2019-03-26T10:52:48.689Z,23.43
2019-03-26T10:53:48.624Z,23.39
2019-03-26T10:54:48.626Z,23.41
2019-03-26T10:55:48.642Z,23.46
2019-03-26T10:56:48.612Z,23.40
2019-03-26T10:57:48.585Z,23.41
2019-03-26T10:58:48.571Z,23.40
2019-03-26T10:59:48.575Z,23.40
2019-03-26T11:00:48.553Z,23.41
2019-03-26T11:01:48.534Z,23.40
2019-03-26T11:02:48.524Z,23.47
2019-03-26T11:03:48.520Z,23.44
2019-03-26T11:04:48.502Z,23.43
2019-03-26T11:05:48.532Z,23.48
2019-03-26T11:06:48.480Z,23.50
2019-03-26T11:07:48.474Z,23.47
2019-03-26T11:08:48.455Z,23.50
2019-03-26T11:09:48.460Z,23.46
2019-03-26T11:10:48.445Z,23.54
2019-03-26T11:11:48.454Z,23.46
2019-03-26T11:12:48.414Z,23.55
2019-03-26T11:13:48.406Z,23.47
2019-03-26T11:14:48.393Z,23.44
2019-03-26T11:15:48.382Z,23.44
2019-03-26T11:16:48.367Z,23.51
2019-03-26T11:17:48.375Z,23.51
2019-03-26T11:18:48.349Z,23.51
2019-03-26T11:19:48.350Z,23.48
2019-03-26T11:21:01.347Z,23.47
2019-03-26T11:21:49.313Z,23.50
2019-03-26T11:22:48.301Z,23.48
2019-03-26T11:23:48.309Z,23.61
2019-03-26T11:24:48.309Z,23.59
2019-03-26T11:25:48.276Z,23.50
2019-03-26T11:26:48.259Z,23.56
2019-03-26T11:27:48.244Z,23.58
2019-03-26T11:28:48.232Z,23.48
2019-03-26T11:29:48.227Z,23.58
2019-03-26T11:30:48.237Z,23.59
2019-03-26T11:31:48.223Z,23.55
2019-03-26T11:32:48.197Z,23.62
2019-03-26T11:33:48.183Z,23.54
2019-03-26T11:34:48.172Z,23.58
2019-03-26T11:35:48.167Z,23.58
2019-03-26T11:36:48.172Z,23.56
2019-03-26T11:37:48.167Z,23.54
2019-03-26T11:38:48.122Z,23.59
2019-03-26T11:39:48.110Z,23.61
2019-03-26T11:40:48.109Z,23.54
2019-03-26T11:41:48.087Z,23.62
2019-03-26T11:42:48.082Z,23.55
2019-03-26T11:43:48.098Z,23.63
2019-03-26T11:44:48.064Z,23.59
2019-03-26T11:45:48.085Z,23.58
2019-03-26T11:46:48.039Z,23.59
2019-03-26T11:47:48.109Z,23.62
2019-03-26T11:48:48.014Z,23.63
2019-03-26T11:49:48.011Z,23.63
2019-03-26T11:50:48.023Z,23.58
2019-03-26T11:51:47.982Z,23.63
2019-03-26T11:52:47.986Z,23.62
2019-03-26T11:53:47.956Z,23.66
2019-03-26T11:54:47.960Z,23.59
2019-03-26T11:55:47.997Z,23.62
2019-03-26T11:56:47.939Z,23.68
2019-03-26T11:57:47.916Z,23.66
2019-03-26T11:58:47.902Z,23.62
2019-03-26T11:59:47.891Z,23.58
2019-03-26T12:00:47.881Z,23.61
2019-03-26T12:01:47.886Z,23.56
2019-03-26T12:02:47.865Z,23.51
2019-03-26T12:03:47.863Z,23.48
2019-03-26T12:04:47.857Z,23.47
2019-03-26T12:05:47.844Z,23.44
2019-03-26T12:06:47.866Z,23.40
2019-03-26T12:07:47.827Z,23.41
2019-03-26T12:08:47.827Z,23.46
2019-03-26T12:09:47.807Z,23.44
2019-03-26T12:10:47.772Z,23.39
2019-03-26T12:11:47.764Z,23.32
2019-03-26T12:12:47.761Z,23.37
2019-03-26T12:13:47.770Z,23.40
2019-03-26T12:14:47.725Z,23.31
2019-03-26T12:15:47.717Z,23.36
2019-03-26T12:16:47.719Z,23.31
2019-03-26T12:17:47.699Z,23.31
2019-03-26T12:18:47.801Z,23.36
2019-03-26T12:19:47.677Z,23.28
2019-03-26T12:20:47.686Z,23.36
2019-03-26T12:21:47.655Z,23.36
2019-03-26T12:22:47.641Z,23.31
2019-03-26T12:23:47.632Z,23.28
2019-03-26T12:24:47.646Z,23.28
2019-03-26T12:25:47.617Z,23.27
2019-03-26T12:26:47.600Z,23.31
2019-03-26T12:27:47.582Z,23.31
2019-03-26T12:28:47.576Z,23.27
2019-03-26T12:29:47.582Z,23.32
2019-03-26T12:30:47.551Z,23.27
2019-03-26T12:31:47.544Z,23.27
2019-03-26T12:32:47.562Z,23.34
2019-03-26T12:33:47.526Z,23.32
2019-03-26T12:34:47.508Z,23.24
2019-03-26T12:35:47.507Z,23.21
2019-03-26T12:36:47.689Z,23.20
2019-03-26T12:37:47.478Z,23.36
2019-03-26T12:38:47.463Z,23.31
2019-03-26T12:39:58.982Z,23.31
2019-03-26T12:40:48.487Z,23.31
2019-03-26T12:41:47.452Z,23.28
2019-03-26T12:42:47.419Z,23.34
2019-03-26T12:43:47.408Z,23.24
2019-03-26T12:44:47.397Z,23.28
2019-03-26T12:45:47.383Z,23.31
2019-03-26T12:46:47.386Z,23.27
2019-03-26T12:47:47.401Z,23.32
2019-03-26T12:48:47.370Z,23.28
2019-03-26T12:49:47.337Z,23.27
2019-03-26T12:50:47.327Z,23.34
2019-03-26T12:51:47.323Z,23.37
2019-03-26T12:52:47.319Z,23.31